sensor_id;sensor_type;location;lat;lon;timestamp;P1;durP1;ratioP1;P2;durP2;ratioP2
21233;SDS011;10774;42.178;26.578;2023-04-30T00:00:39;10.57;;;6.15;;
21233;SDS011;10774;42.178;26.578;2023-04-30T00:03:04;9.35;;;5.75;;
21233;SDS011;10774;42.178;26.578;2023-04-30T00:05:30;8.82;;;6.15;;
21233;SDS011;10774;42.178;26.578;2023-04-30T00:07:55;6.18;;;5.45;;
21233;SDS011;10774;42.178;26.578;2023-04-30T00:10:21;9.95;;;5.45;;
21233;SDS011;10774;42.178;26.578;2023-04-30T00:12:46;7.85;;;5.85;;
21233;SDS011;10774;42.178;26.578;2023-04-30T00:15:12;8.48;;;5.18;;
21233;SDS011;10774;42.178;26.578;2023-04-30T00:17:37;9.88;;;5.70;;
21233;SDS011;10774;42.178;26.578;2023-04-30T00:20:03;6.82;;;5.28;;
21233;SDS011;10774;42.178;26.578;2023-04-30T00:22:28;8.65;;;5.55;;
21233;SDS011;10774;42.178;26.578;2023-04-30T00:24:54;7.78;;;5.10;;
21233;SDS011;10774;42.178;26.578;2023-04-30T00:27:19;7.47;;;5.22;;
21233;SDS011;10774;42.178;26.578;2023-04-30T00:29:45;8.13;;;5.10;;
21233;SDS011;10774;42.178;26.578;2023-04-30T00:32:10;12.77;;;6.10;;
21233;SDS011;10774;42.178;26.578;2023-04-30T00:34:35;7.57;;;5.45;;
21233;SDS011;10774;42.178;26.578;2023-04-30T00:37:01;10.20;;;5.13;;
21233;SDS011;10774;42.178;26.578;2023-04-30T00:39:26;6.55;;;4.97;;
21233;SDS011;10774;42.178;26.578;2023-04-30T00:41:52;7.45;;;5.35;;
21233;SDS011;10774;42.178;26.578;2023-04-30T00:44:20;7.70;;;5.32;;
21233;SDS011;10774;42.178;26.578;2023-04-30T00:46:45;9.27;;;5.05;;
21233;SDS011;10774;42.178;26.578;2023-04-30T00:49:11;8.70;;;5.55;;
21233;SDS011;10774;42.178;26.578;2023-04-30T00:51:36;8.07;;;4.80;;
21233;SDS011;10774;42.178;26.578;2023-04-30T00:54:05;7.65;;;5.10;;
21233;SDS011;10774;42.178;26.578;2023-04-30T00:56:31;10.10;;;5.57;;
21233;SDS011;10774;42.178;26.578;2023-04-30T00:58:57;9.77;;;5.28;;
21233;SDS011;10774;42.178;26.578;2023-04-30T01:01:26;10.82;;;6.25;;
21233;SDS011;10774;42.178;26.578;2023-04-30T01:03:55;7.72;;;5.32;;
21233;SDS011;10774;42.178;26.578;2023-04-30T01:06:21;8.30;;;5.45;;
21233;SDS011;10774;42.178;26.578;2023-04-30T01:08:47;7.10;;;5.53;;
21233;SDS011;10774;42.178;26.578;2023-04-30T01:14:11;6.78;;;5.60;;
21233;SDS011;10774;42.178;26.578;2023-04-30T01:16:50;7.00;;;5.68;;
21233;SDS011;10774;42.178;26.578;2023-04-30T01:22:02;7.38;;;5.53;;
21233;SDS011;10774;42.178;26.578;2023-04-30T01:30:01;8.50;;;5.38;;
21233;SDS011;10774;42.178;26.578;2023-04-30T01:32:28;8.45;;;5.30;;
21233;SDS011;10774;42.178;26.578;2023-04-30T01:34:54;7.00;;;4.93;;
21233;SDS011;10774;42.178;26.578;2023-04-30T01:40:23;7.50;;;5.53;;
21233;SDS011;10774;42.178;26.578;2023-04-30T01:48:52;8.15;;;6.55;;
21233;SDS011;10774;42.178;26.578;2023-04-30T01:54:29;12.40;;;5.90;;
21233;SDS011;10774;42.178;26.578;2023-04-30T01:57:06;7.75;;;5.57;;
21233;SDS011;10774;42.178;26.578;2023-04-30T01:59:37;9.35;;;6.18;;
21233;SDS011;10774;42.178;26.578;2023-04-30T02:02:04;8.90;;;5.50;;
21233;SDS011;10774;42.178;26.578;2023-04-30T02:04:30;10.45;;;6.10;;
21233;SDS011;10774;42.178;26.578;2023-04-30T02:06:56;8.73;;;5.75;;
21233;SDS011;10774;42.178;26.578;2023-04-30T02:09:23;8.80;;;5.72;;
21233;SDS011;10774;42.178;26.578;2023-04-30T02:11:48;9.52;;;5.55;;
21233;SDS011;10774;42.178;26.578;2023-04-30T02:14:14;8.18;;;5.55;;
21233;SDS011;10774;42.178;26.578;2023-04-30T02:16:40;5.93;;;4.85;;
21233;SDS011;10774;42.178;26.578;2023-04-30T02:19:05;7.75;;;4.80;;
21233;SDS011;10774;42.178;26.578;2023-04-30T02:21:31;6.60;;;5.00;;
21233;SDS011;10774;42.178;26.578;2023-04-30T02:23:56;5.65;;;4.60;;
21233;SDS011;10774;42.178;26.578;2023-04-30T02:26:21;18.40;;;5.43;;
21233;SDS011;10774;42.178;26.578;2023-04-30T02:28:47;6.82;;;5.47;;
21233;SDS011;10774;42.178;26.578;2023-04-30T02:31:12;9.52;;;5.60;;
21233;SDS011;10774;42.178;26.578;2023-04-30T02:33:38;6.20;;;5.60;;
21233;SDS011;10774;42.178;26.578;2023-04-30T02:36:03;10.20;;;5.63;;
21233;SDS011;10774;42.178;26.578;2023-04-30T02:38:29;9.43;;;5.22;;
21233;SDS011;10774;42.178;26.578;2023-04-30T02:40:54;8.20;;;5.45;;
21233;SDS011;10774;42.178;26.578;2023-04-30T02:43:20;8.27;;;6.28;;
21233;SDS011;10774;42.178;26.578;2023-04-30T02:45:45;9.50;;;6.75;;
21233;SDS011;10774;42.178;26.578;2023-04-30T02:48:11;9.35;;;7.70;;
21233;SDS011;10774;42.178;26.578;2023-04-30T02:50:36;7.28;;;6.35;;
21233;SDS011;10774;42.178;26.578;2023-04-30T02:53:01;11.20;;;6.70;;
21233;SDS011;10774;42.178;26.578;2023-04-30T02:55:27;7.53;;;5.97;;
21233;SDS011;10774;42.178;26.578;2023-04-30T02:57:52;8.30;;;6.28;;
21233;SDS011;10774;42.178;26.578;2023-04-30T03:00:18;9.65;;;5.93;;
21233;SDS011;10774;42.178;26.578;2023-04-30T03:02:43;7.85;;;6.43;;
21233;SDS011;10774;42.178;26.578;2023-04-30T03:05:09;12.25;;;6.50;;
21233;SDS011;10774;42.178;26.578;2023-04-30T03:07:35;9.23;;;6.65;;
21233;SDS011;10774;42.178;26.578;2023-04-30T03:10:00;8.75;;;6.43;;
21233;SDS011;10774;42.178;26.578;2023-04-30T03:12:26;8.63;;;7.00;;
21233;SDS011;10774;42.178;26.578;2023-04-30T03:14:51;8.57;;;6.65;;
21233;SDS011;10774;42.178;26.578;2023-04-30T03:17:17;8.30;;;5.97;;
21233;SDS011;10774;42.178;26.578;2023-04-30T03:19:42;8.35;;;6.32;;
21233;SDS011;10774;42.178;26.578;2023-04-30T03:22:09;9.98;;;6.15;;
21233;SDS011;10774;42.178;26.578;2023-04-30T03:24:35;6.80;;;6.10;;
21233;SDS011;10774;42.178;26.578;2023-04-30T03:27:00;19.65;;;10.25;;
21233;SDS011;10774;42.178;26.578;2023-04-30T03:29:26;26.58;;;16.40;;
21233;SDS011;10774;42.178;26.578;2023-04-30T03:31:51;24.15;;;17.30;;
21233;SDS011;10774;42.178;26.578;2023-04-30T03:34:16;22.27;;;17.13;;
21233;SDS011;10774;42.178;26.578;2023-04-30T03:36:42;55.15;;;34.05;;
21233;SDS011;10774;42.178;26.578;2023-04-30T03:39:07;57.58;;;34.15;;
21233;SDS011;10774;42.178;26.578;2023-04-30T03:41:34;48.42;;;29.27;;
21233;SDS011;10774;42.178;26.578;2023-04-30T03:44:00;40.67;;;24.00;;
21233;SDS011;10774;42.178;26.578;2023-04-30T03:46:25;50.25;;;34.13;;
21233;SDS011;10774;42.178;26.578;2023-04-30T03:48:50;28.10;;;17.55;;
21233;SDS011;10774;42.178;26.578;2023-04-30T03:51:17;18.90;;;13.27;;
21233;SDS011;10774;42.178;26.578;2023-04-30T03:53:44;20.25;;;13.48;;
21233;SDS011;10774;42.178;26.578;2023-04-30T03:56:11;15.25;;;10.10;;
21233;SDS011;10774;42.178;26.578;2023-04-30T03:58:37;14.15;;;8.85;;
21233;SDS011;10774;42.178;26.578;2023-04-30T04:01:02;15.77;;;10.23;;
21233;SDS011;10774;42.178;26.578;2023-04-30T04:03:28;12.38;;;8.38;;
21233;SDS011;10774;42.178;26.578;2023-04-30T04:05:54;9.45;;;6.93;;
21233;SDS011;10774;42.178;26.578;2023-04-30T04:08:19;8.32;;;6.53;;
21233;SDS011;10774;42.178;26.578;2023-04-30T04:10:44;12.27;;;6.72;;
21233;SDS011;10774;42.178;26.578;2023-04-30T04:13:10;9.93;;;6.82;;
21233;SDS011;10774;42.178;26.578;2023-04-30T04:15:36;9.60;;;6.13;;
21233;SDS011;10774;42.178;26.578;2023-04-30T04:18:01;8.68;;;6.43;;
21233;SDS011;10774;42.178;26.578;2023-04-30T04:20:27;11.30;;;8.63;;
21233;SDS011;10774;42.178;26.578;2023-04-30T04:22:53;10.60;;;7.05;;
21233;SDS011;10774;42.178;26.578;2023-04-30T04:25:19;10.07;;;6.97;;
21233;SDS011;10774;42.178;26.578;2023-04-30T04:27:49;9.85;;;6.80;;
21233;SDS011;10774;42.178;26.578;2023-04-30T04:30:16;10.82;;;6.25;;
21233;SDS011;10774;42.178;26.578;2023-04-30T04:32:41;10.30;;;6.60;;
21233;SDS011;10774;42.178;26.578;2023-04-30T04:35:12;9.55;;;5.82;;
21233;SDS011;10774;42.178;26.578;2023-04-30T04:37:38;11.90;;;6.30;;
21233;SDS011;10774;42.178;26.578;2023-04-30T04:40:04;8.48;;;6.10;;
21233;SDS011;10774;42.178;26.578;2023-04-30T04:42:30;9.82;;;5.55;;
21233;SDS011;10774;42.178;26.578;2023-04-30T04:44:56;9.60;;;5.38;;
21233;SDS011;10774;42.178;26.578;2023-04-30T04:47:21;9.38;;;6.13;;
21233;SDS011;10774;42.178;26.578;2023-04-30T04:49:47;9.30;;;6.03;;
21233;SDS011;10774;42.178;26.578;2023-04-30T04:52:12;18.50;;;13.85;;
21233;SDS011;10774;42.178;26.578;2023-04-30T04:54:38;19.55;;;13.02;;
21233;SDS011;10774;42.178;26.578;2023-04-30T04:57:03;17.52;;;12.77;;
21233;SDS011;10774;42.178;26.578;2023-04-30T04:59:28;17.05;;;12.50;;
21233;SDS011;10774;42.178;26.578;2023-04-30T05:01:54;22.17;;;14.40;;
21233;SDS011;10774;42.178;26.578;2023-04-30T05:04:20;30.55;;;20.58;;
21233;SDS011;10774;42.178;26.578;2023-04-30T05:06:45;22.27;;;14.95;;
21233;SDS011;10774;42.178;26.578;2023-04-30T05:09:11;23.35;;;11.90;;
21233;SDS011;10774;42.178;26.578;2023-04-30T05:11:36;20.48;;;11.38;;
21233;SDS011;10774;42.178;26.578;2023-04-30T05:14:02;16.80;;;13.45;;
21233;SDS011;10774;42.178;26.578;2023-04-30T05:16:29;25.00;;;15.65;;
21233;SDS011;10774;42.178;26.578;2023-04-30T05:18:54;22.17;;;14.68;;
21233;SDS011;10774;42.178;26.578;2023-04-30T05:21:20;24.60;;;15.18;;
21233;SDS011;10774;42.178;26.578;2023-04-30T05:23:45;21.02;;;14.73;;
21233;SDS011;10774;42.178;26.578;2023-04-30T05:26:11;22.00;;;15.35;;
21233;SDS011;10774;42.178;26.578;2023-04-30T05:28:36;19.58;;;13.63;;
21233;SDS011;10774;42.178;26.578;2023-04-30T05:31:02;21.33;;;13.68;;
21233;SDS011;10774;42.178;26.578;2023-04-30T05:33:27;17.23;;;12.02;;
21233;SDS011;10774;42.178;26.578;2023-04-30T05:35:52;21.98;;;12.88;;
21233;SDS011;10774;42.178;26.578;2023-04-30T05:38:18;15.32;;;11.80;;
21233;SDS011;10774;42.178;26.578;2023-04-30T05:40:43;21.70;;;11.10;;
21233;SDS011;10774;42.178;26.578;2023-04-30T05:43:08;15.52;;;10.00;;
21233;SDS011;10774;42.178;26.578;2023-04-30T05:45:34;14.80;;;9.15;;
21233;SDS011;10774;42.178;26.578;2023-04-30T05:47:59;13.25;;;9.10;;
21233;SDS011;10774;42.178;26.578;2023-04-30T05:50:25;15.43;;;9.07;;
21233;SDS011;10774;42.178;26.578;2023-04-30T05:52:51;13.45;;;9.25;;
21233;SDS011;10774;42.178;26.578;2023-04-30T05:55:16;14.55;;;9.95;;
21233;SDS011;10774;42.178;26.578;2023-04-30T05:57:42;19.02;;;10.45;;
21233;SDS011;10774;42.178;26.578;2023-04-30T06:00:07;16.10;;;9.80;;
21233;SDS011;10774;42.178;26.578;2023-04-30T06:02:33;12.70;;;9.13;;
21233;SDS011;10774;42.178;26.578;2023-04-30T06:04:59;13.45;;;9.10;;
21233;SDS011;10774;42.178;26.578;2023-04-30T06:07:25;11.98;;;8.43;;
21233;SDS011;10774;42.178;26.578;2023-04-30T06:09:51;14.10;;;9.20;;
21233;SDS011;10774;42.178;26.578;2023-04-30T06:12:16;13.75;;;8.75;;
21233;SDS011;10774;42.178;26.578;2023-04-30T06:14:42;16.60;;;9.90;;
21233;SDS011;10774;42.178;26.578;2023-04-30T06:17:09;10.05;;;6.72;;
21233;SDS011;10774;42.178;26.578;2023-04-30T06:19:35;10.98;;;6.55;;
21233;SDS011;10774;42.178;26.578;2023-04-30T06:22:02;11.82;;;6.18;;
21233;SDS011;10774;42.178;26.578;2023-04-30T06:24:28;8.32;;;5.50;;
21233;SDS011;10774;42.178;26.578;2023-04-30T06:26:54;9.20;;;5.53;;
21233;SDS011;10774;42.178;26.578;2023-04-30T06:29:19;9.70;;;6.03;;
21233;SDS011;10774;42.178;26.578;2023-04-30T06:31:45;7.10;;;5.50;;
21233;SDS011;10774;42.178;26.578;2023-04-30T06:34:10;12.07;;;6.10;;
21233;SDS011;10774;42.178;26.578;2023-04-30T06:36:36;7.47;;;5.20;;
21233;SDS011;10774;42.178;26.578;2023-04-30T06:39:01;9.60;;;6.20;;
21233;SDS011;10774;42.178;26.578;2023-04-30T06:41:27;10.18;;;5.60;;
21233;SDS011;10774;42.178;26.578;2023-04-30T06:43:52;8.80;;;6.05;;
21233;SDS011;10774;42.178;26.578;2023-04-30T06:46:18;12.38;;;5.80;;
21233;SDS011;10774;42.178;26.578;2023-04-30T06:48:43;9.73;;;5.57;;
21233;SDS011;10774;42.178;26.578;2023-04-30T06:51:08;8.93;;;5.47;;
21233;SDS011;10774;42.178;26.578;2023-04-30T06:53:34;7.28;;;5.07;;
21233;SDS011;10774;42.178;26.578;2023-04-30T06:55:59;8.38;;;4.82;;
21233;SDS011;10774;42.178;26.578;2023-04-30T06:58:25;6.57;;;4.60;;
21233;SDS011;10774;42.178;26.578;2023-04-30T07:00:50;7.40;;;4.70;;
21233;SDS011;10774;42.178;26.578;2023-04-30T07:03:16;6.10;;;4.75;;
21233;SDS011;10774;42.178;26.578;2023-04-30T07:05:41;9.48;;;5.30;;
21233;SDS011;10774;42.178;26.578;2023-04-30T07:08:07;7.35;;;4.90;;
21233;SDS011;10774;42.178;26.578;2023-04-30T07:10:32;8.50;;;4.72;;
21233;SDS011;10774;42.178;26.578;2023-04-30T07:12:58;7.60;;;4.53;;
21233;SDS011;10774;42.178;26.578;2023-04-30T07:15:23;6.97;;;4.45;;
21233;SDS011;10774;42.178;26.578;2023-04-30T07:17:49;7.35;;;3.70;;
21233;SDS011;10774;42.178;26.578;2023-04-30T07:20:14;9.95;;;3.83;;
21233;SDS011;10774;42.178;26.578;2023-04-30T07:22:41;6.75;;;3.70;;
21233;SDS011;10774;42.178;26.578;2023-04-30T07:25:08;6.15;;;4.00;;
21233;SDS011;10774;42.178;26.578;2023-04-30T07:27:35;6.93;;;4.90;;
21233;SDS011;10774;42.178;26.578;2023-04-30T07:30:00;8.25;;;4.13;;
21233;SDS011;10774;42.178;26.578;2023-04-30T07:32:25;6.35;;;4.50;;
21233;SDS011;10774;42.178;26.578;2023-04-30T07:34:51;8.43;;;4.60;;
21233;SDS011;10774;42.178;26.578;2023-04-30T07:37:17;12.13;;;4.60;;
21233;SDS011;10774;42.178;26.578;2023-04-30T07:39:43;6.32;;;3.80;;
21233;SDS011;10774;42.178;26.578;2023-04-30T07:42:08;5.57;;;2.60;;
21233;SDS011;10774;42.178;26.578;2023-04-30T07:44:34;7.00;;;3.28;;
21233;SDS011;10774;42.178;26.578;2023-04-30T07:46:59;6.60;;;3.25;;
21233;SDS011;10774;42.178;26.578;2023-04-30T07:49:24;6.60;;;3.47;;
21233;SDS011;10774;42.178;26.578;2023-04-30T07:51:50;5.28;;;2.58;;
21233;SDS011;10774;42.178;26.578;2023-04-30T07:54:16;7.05;;;3.00;;
21233;SDS011;10774;42.178;26.578;2023-04-30T07:56:41;6.00;;;4.03;;
21233;SDS011;10774;42.178;26.578;2023-04-30T07:59:06;6.57;;;3.10;;
21233;SDS011;10774;42.178;26.578;2023-04-30T08:01:32;4.60;;;2.65;;
21233;SDS011;10774;42.178;26.578;2023-04-30T08:03:57;3.72;;;2.63;;
21233;SDS011;10774;42.178;26.578;2023-04-30T08:06:23;4.07;;;2.30;;
21233;SDS011;10774;42.178;26.578;2023-04-30T08:08:49;5.40;;;2.95;;
21233;SDS011;10774;42.178;26.578;2023-04-30T08:11:15;5.95;;;2.70;;
21233;SDS011;10774;42.178;26.578;2023-04-30T08:13:40;3.47;;;2.33;;
21233;SDS011;10774;42.178;26.578;2023-04-30T08:16:06;7.00;;;2.70;;
21233;SDS011;10774;42.178;26.578;2023-04-30T08:18:32;3.72;;;2.22;;
21233;SDS011;10774;42.178;26.578;2023-04-30T08:20:58;3.45;;;2.28;;
21233;SDS011;10774;42.178;26.578;2023-04-30T08:23:24;7.00;;;2.70;;
21233;SDS011;10774;42.178;26.578;2023-04-30T08:25:50;2.05;;;1.70;;
21233;SDS011;10774;42.178;26.578;2023-04-30T08:28:15;5.32;;;2.22;;
21233;SDS011;10774;42.178;26.578;2023-04-30T08:30:41;6.00;;;2.65;;
21233;SDS011;10774;42.178;26.578;2023-04-30T08:33:07;3.88;;;2.28;;
21233;SDS011;10774;42.178;26.578;2023-04-30T08:35:33;3.85;;;2.30;;
21233;SDS011;10774;42.178;26.578;2023-04-30T08:37:58;5.63;;;2.40;;
21233;SDS011;10774;42.178;26.578;2023-04-30T08:40:23;3.55;;;2.17;;
21233;SDS011;10774;42.178;26.578;2023-04-30T08:42:52;3.95;;;2.08;;
21233;SDS011;10774;42.178;26.578;2023-04-30T08:45:28;5.55;;;2.58;;
21233;SDS011;10774;42.178;26.578;2023-04-30T08:47:56;4.63;;;2.30;;
21233;SDS011;10774;42.178;26.578;2023-04-30T08:50:24;4.35;;;2.30;;
21233;SDS011;10774;42.178;26.578;2023-04-30T08:52:50;4.82;;;2.53;;
21233;SDS011;10774;42.178;26.578;2023-04-30T08:55:15;5.13;;;2.30;;
21233;SDS011;10774;42.178;26.578;2023-04-30T08:57:40;7.03;;;2.17;;
21233;SDS011;10774;42.178;26.578;2023-04-30T09:00:06;3.80;;;2.00;;
21233;SDS011;10774;42.178;26.578;2023-04-30T09:02:32;3.67;;;1.73;;
21233;SDS011;10774;42.178;26.578;2023-04-30T09:04:58;3.10;;;1.75;;
21233;SDS011;10774;42.178;26.578;2023-04-30T09:07:24;8.38;;;2.00;;
21233;SDS011;10774;42.178;26.578;2023-04-30T09:09:53;3.90;;;2.00;;
21233;SDS011;10774;42.178;26.578;2023-04-30T09:12:18;7.07;;;2.40;;
21233;SDS011;10774;42.178;26.578;2023-04-30T09:17:30;6.40;;;1.88;;
21233;SDS011;10774;42.178;26.578;2023-04-30T09:20:10;3.95;;;1.98;;
21233;SDS011;10774;42.178;26.578;2023-04-30T09:22:37;3.08;;;1.88;;
21233;SDS011;10774;42.178;26.578;2023-04-30T09:25:05;5.25;;;1.85;;
21233;SDS011;10774;42.178;26.578;2023-04-30T09:27:32;5.43;;;2.03;;
21233;SDS011;10774;42.178;26.578;2023-04-30T09:29:57;4.32;;;1.90;;
21233;SDS011;10774;42.178;26.578;2023-04-30T09:32:23;4.15;;;1.80;;
21233;SDS011;10774;42.178;26.578;2023-04-30T09:34:48;5.00;;;1.92;;
21233;SDS011;10774;42.178;26.578;2023-04-30T09:37:13;4.25;;;2.03;;
21233;SDS011;10774;42.178;26.578;2023-04-30T09:39:46;3.45;;;1.90;;
21233;SDS011;10774;42.178;26.578;2023-04-30T09:42:16;2.85;;;1.63;;
21233;SDS011;10774;42.178;26.578;2023-04-30T09:44:45;5.72;;;2.30;;
21233;SDS011;10774;42.178;26.578;2023-04-30T09:47:20;3.72;;;1.92;;
21233;SDS011;10774;42.178;26.578;2023-04-30T09:49:46;3.30;;;2.10;;
21233;SDS011;10774;42.178;26.578;2023-04-30T09:52:15;3.83;;;2.20;;
21233;SDS011;10774;42.178;26.578;2023-04-30T09:54:42;4.70;;;2.17;;
21233;SDS011;10774;42.178;26.578;2023-04-30T09:57:09;5.32;;;2.28;;
21233;SDS011;10774;42.178;26.578;2023-04-30T09:59:36;2.95;;;2.00;;
21233;SDS011;10774;42.178;26.578;2023-04-30T10:02:06;3.83;;;1.92;;
21233;SDS011;10774;42.178;26.578;2023-04-30T10:04:36;5.40;;;2.45;;
21233;SDS011;10774;42.178;26.578;2023-04-30T10:07:05;6.57;;;2.40;;
21233;SDS011;10774;42.178;26.578;2023-04-30T10:10:02;4.75;;;2.40;;
21233;SDS011;10774;42.178;26.578;2023-04-30T10:12:47;5.00;;;2.75;;
21233;SDS011;10774;42.178;26.578;2023-04-30T10:15:29;3.65;;;1.83;;
21233;SDS011;10774;42.178;26.578;2023-04-30T10:17:59;5.80;;;2.17;;
21233;SDS011;10774;42.178;26.578;2023-04-30T10:20:28;3.40;;;2.00;;
21233;SDS011;10774;42.178;26.578;2023-04-30T10:22:59;5.97;;;2.10;;
21233;SDS011;10774;42.178;26.578;2023-04-30T10:25:25;4.43;;;2.08;;
21233;SDS011;10774;42.178;26.578;2023-04-30T10:27:52;5.40;;;2.13;;
21233;SDS011;10774;42.178;26.578;2023-04-30T10:30:18;3.13;;;1.70;;
21233;SDS011;10774;42.178;26.578;2023-04-30T10:32:48;3.35;;;2.13;;
21233;SDS011;10774;42.178;26.578;2023-04-30T10:35:23;5.90;;;1.95;;
21233;SDS011;10774;42.178;26.578;2023-04-30T10:37:54;4.20;;;2.00;;
21233;SDS011;10774;42.178;26.578;2023-04-30T10:40:26;2.97;;;1.80;;
21233;SDS011;10774;42.178;26.578;2023-04-30T10:42:52;2.60;;;2.00;;
21233;SDS011;10774;42.178;26.578;2023-04-30T10:45:19;4.22;;;2.00;;
21233;SDS011;10774;42.178;26.578;2023-04-30T10:48:00;5.03;;;1.90;;
21233;SDS011;10774;42.178;26.578;2023-04-30T10:50:30;2.90;;;1.98;;
21233;SDS011;10774;42.178;26.578;2023-04-30T10:53:01;3.83;;;2.22;;
21233;SDS011;10774;42.178;26.578;2023-04-30T10:55:28;4.05;;;2.40;;
21233;SDS011;10774;42.178;26.578;2023-04-30T10:57:54;4.57;;;1.92;;
21233;SDS011;10774;42.178;26.578;2023-04-30T11:00:26;3.22;;;1.90;;
21233;SDS011;10774;42.178;26.578;2023-04-30T11:02:56;5.28;;;2.00;;
21233;SDS011;10774;42.178;26.578;2023-04-30T11:05:36;3.67;;;1.65;;
21233;SDS011;10774;42.178;26.578;2023-04-30T11:08:03;4.70;;;2.13;;
21233;SDS011;10774;42.178;26.578;2023-04-30T11:10:33;3.92;;;1.77;;
21233;SDS011;10774;42.178;26.578;2023-04-30T11:13:02;2.78;;;1.95;;
21233;SDS011;10774;42.178;26.578;2023-04-30T11:15:33;3.15;;;1.88;;
21233;SDS011;10774;42.178;26.578;2023-04-30T11:18:05;6.10;;;2.35;;
21233;SDS011;10774;42.178;26.578;2023-04-30T11:20:31;9.13;;;2.10;;
21233;SDS011;10774;42.178;26.578;2023-04-30T11:23:07;3.90;;;2.30;;
21233;SDS011;10774;42.178;26.578;2023-04-30T11:25:41;2.53;;;1.80;;
21233;SDS011;10774;42.178;26.578;2023-04-30T11:30:51;6.07;;;2.42;;
21233;SDS011;10774;42.178;26.578;2023-04-30T11:33:17;3.22;;;1.92;;
21233;SDS011;10774;42.178;26.578;2023-04-30T11:35:43;4.60;;;2.10;;
21233;SDS011;10774;42.178;26.578;2023-04-30T11:38:12;3.92;;;1.70;;
21233;SDS011;10774;42.178;26.578;2023-04-30T11:40:39;3.45;;;1.77;;
21233;SDS011;10774;42.178;26.578;2023-04-30T11:43:06;4.05;;;1.50;;
21233;SDS011;10774;42.178;26.578;2023-04-30T11:45:32;4.55;;;2.08;;
21233;SDS011;10774;42.178;26.578;2023-04-30T11:47:57;7.75;;;2.40;;
21233;SDS011;10774;42.178;26.578;2023-04-30T11:50:25;2.55;;;1.80;;
21233;SDS011;10774;42.178;26.578;2023-04-30T11:52:57;4.53;;;1.63;;
21233;SDS011;10774;42.178;26.578;2023-04-30T11:55:23;4.45;;;1.80;;
21233;SDS011;10774;42.178;26.578;2023-04-30T11:57:51;3.05;;;1.73;;
21233;SDS011;10774;42.178;26.578;2023-04-30T12:00:20;2.90;;;1.70;;
21233;SDS011;10774;42.178;26.578;2023-04-30T12:02:51;3.70;;;1.80;;
21233;SDS011;10774;42.178;26.578;2023-04-30T12:05:18;5.78;;;2.20;;
21233;SDS011;10774;42.178;26.578;2023-04-30T12:07:46;2.63;;;1.60;;
21233;SDS011;10774;42.178;26.578;2023-04-30T12:10:12;3.15;;;1.35;;
21233;SDS011;10774;42.178;26.578;2023-04-30T12:12:38;3.97;;;1.75;;
21233;SDS011;10774;42.178;26.578;2023-04-30T12:15:14;3.85;;;1.65;;
21233;SDS011;10774;42.178;26.578;2023-04-30T12:17:41;6.10;;;1.63;;
21233;SDS011;10774;42.178;26.578;2023-04-30T12:20:08;2.83;;;1.55;;
21233;SDS011;10774;42.178;26.578;2023-04-30T12:22:34;3.10;;;1.85;;
21233;SDS011;10774;42.178;26.578;2023-04-30T12:25:04;5.35;;;1.70;;
21233;SDS011;10774;42.178;26.578;2023-04-30T12:27:33;3.42;;;1.73;;
21233;SDS011;10774;42.178;26.578;2023-04-30T12:30:04;2.72;;;1.40;;
21233;SDS011;10774;42.178;26.578;2023-04-30T12:32:36;4.38;;;1.45;;
21233;SDS011;10774;42.178;26.578;2023-04-30T12:35:19;4.05;;;1.70;;
21233;SDS011;10774;42.178;26.578;2023-04-30T12:37:47;3.78;;;1.70;;
21233;SDS011;10774;42.178;26.578;2023-04-30T12:40:16;4.45;;;1.80;;
21233;SDS011;10774;42.178;26.578;2023-04-30T12:42:43;1.77;;;1.48;;
21233;SDS011;10774;42.178;26.578;2023-04-30T12:45:10;3.63;;;1.60;;
21233;SDS011;10774;42.178;26.578;2023-04-30T12:47:40;3.95;;;1.83;;
21233;SDS011;10774;42.178;26.578;2023-04-30T12:50:09;2.30;;;1.50;;
21233;SDS011;10774;42.178;26.578;2023-04-30T12:52:39;4.18;;;1.88;;
21233;SDS011;10774;42.178;26.578;2023-04-30T12:55:17;5.40;;;1.80;;
21233;SDS011;10774;42.178;26.578;2023-04-30T13:00:29;3.92;;;1.58;;
21233;SDS011;10774;42.178;26.578;2023-04-30T13:03:07;2.17;;;1.30;;
21233;SDS011;10774;42.178;26.578;2023-04-30T13:05:33;2.47;;;1.40;;
21233;SDS011;10774;42.178;26.578;2023-04-30T13:08:02;4.28;;;1.83;;
21233;SDS011;10774;42.178;26.578;2023-04-30T13:10:30;3.15;;;1.67;;
21233;SDS011;10774;42.178;26.578;2023-04-30T13:12:56;2.80;;;1.40;;
21233;SDS011;10774;42.178;26.578;2023-04-30T13:15:21;2.88;;;1.70;;
21233;SDS011;10774;42.178;26.578;2023-04-30T13:17:47;4.63;;;1.60;;
21233;SDS011;10774;42.178;26.578;2023-04-30T13:20:12;3.08;;;1.50;;
21233;SDS011;10774;42.178;26.578;2023-04-30T13:22:39;3.63;;;1.40;;
21233;SDS011;10774;42.178;26.578;2023-04-30T13:25:05;6.18;;;1.80;;
21233;SDS011;10774;42.178;26.578;2023-04-30T13:27:31;7.10;;;1.90;;
21233;SDS011;10774;42.178;26.578;2023-04-30T13:29:56;5.93;;;2.55;;
21233;SDS011;10774;42.178;26.578;2023-04-30T13:32:21;5.20;;;1.48;;
21233;SDS011;10774;42.178;26.578;2023-04-30T13:34:47;3.80;;;1.83;;
21233;SDS011;10774;42.178;26.578;2023-04-30T13:37:13;4.25;;;1.52;;
21233;SDS011;10774;42.178;26.578;2023-04-30T13:39:38;5.03;;;1.77;;
21233;SDS011;10774;42.178;26.578;2023-04-30T13:42:04;3.13;;;1.50;;
21233;SDS011;10774;42.178;26.578;2023-04-30T13:44:30;4.43;;;1.65;;
21233;SDS011;10774;42.178;26.578;2023-04-30T13:46:57;2.90;;;1.50;;
21233;SDS011;10774;42.178;26.578;2023-04-30T13:49:23;2.63;;;1.65;;
21233;SDS011;10774;42.178;26.578;2023-04-30T13:51:48;2.30;;;1.63;;
21233;SDS011;10774;42.178;26.578;2023-04-30T13:54:13;2.95;;;1.60;;
21233;SDS011;10774;42.178;26.578;2023-04-30T13:56:39;3.55;;;1.80;;
21233;SDS011;10774;42.178;26.578;2023-04-30T13:59:04;2.08;;;1.60;;
21233;SDS011;10774;42.178;26.578;2023-04-30T14:01:30;3.60;;;1.83;;
21233;SDS011;10774;42.178;26.578;2023-04-30T14:03:57;4.25;;;1.83;;
21233;SDS011;10774;42.178;26.578;2023-04-30T14:06:22;5.47;;;1.60;;
21233;SDS011;10774;42.178;26.578;2023-04-30T14:08:48;5.18;;;1.63;;
21233;SDS011;10774;42.178;26.578;2023-04-30T14:11:13;3.33;;;1.60;;
21233;SDS011;10774;42.178;26.578;2023-04-30T14:13:39;2.35;;;1.70;;
21233;SDS011;10774;42.178;26.578;2023-04-30T14:16:05;3.85;;;1.70;;
21233;SDS011;10774;42.178;26.578;2023-04-30T14:18:31;2.47;;;1.70;;
21233;SDS011;10774;42.178;26.578;2023-04-30T14:20:56;4.40;;;1.70;;
21233;SDS011;10774;42.178;26.578;2023-04-30T14:23:22;3.03;;;1.58;;
21233;SDS011;10774;42.178;26.578;2023-04-30T14:25:47;3.83;;;1.30;;
21233;SDS011;10774;42.178;26.578;2023-04-30T14:28:12;5.00;;;1.98;;
21233;SDS011;10774;42.178;26.578;2023-04-30T14:30:39;5.30;;;1.92;;
21233;SDS011;10774;42.178;26.578;2023-04-30T14:33:04;2.92;;;1.88;;
21233;SDS011;10774;42.178;26.578;2023-04-30T14:35:30;2.92;;;1.75;;
21233;SDS011;10774;42.178;26.578;2023-04-30T14:37:55;8.05;;;1.70;;
21233;SDS011;10774;42.178;26.578;2023-04-30T14:40:21;5.30;;;2.40;;
21233;SDS011;10774;42.178;26.578;2023-04-30T14:42:46;5.45;;;2.35;;
21233;SDS011;10774;42.178;26.578;2023-04-30T14:45:11;3.72;;;2.85;;
21233;SDS011;10774;42.178;26.578;2023-04-30T14:47:37;11.50;;;6.60;;
21233;SDS011;10774;42.178;26.578;2023-04-30T14:50:03;12.30;;;5.45;;
21233;SDS011;10774;42.178;26.578;2023-04-30T14:52:29;6.55;;;3.78;;
21233;SDS011;10774;42.178;26.578;2023-04-30T14:54:54;4.05;;;2.70;;
21233;SDS011;10774;42.178;26.578;2023-04-30T14:57:20;7.68;;;3.60;;
21233;SDS011;10774;42.178;26.578;2023-04-30T14:59:45;4.53;;;3.22;;